createdAt,value
2023-04-17T00:03:25.433Z,41.65
2023-04-17T00:08:28.582Z,35.03
2023-04-17T00:13:33.055Z,43.35
2023-04-17T00:18:36.345Z,34.42
2023-04-17T00:23:39.635Z,35.55
2023-04-17T00:28:44.140Z,35.95
2023-04-17T00:33:47.373Z,37.97
2023-04-17T00:38:50.475Z,37.92
2023-04-17T00:43:54.961Z,41.75
2023-04-17T00:48:58.122Z,34.50
2023-04-17T00:54:01.546Z,41.22
2023-04-17T00:59:08.751Z,40.60
2023-04-17T01:04:12.227Z,39.47
2023-04-17T01:09:15.814Z,37.97
2023-04-17T01:14:20.674Z,38.42
2023-04-17T01:19:24.008Z,45.17
2023-04-17T01:24:28.655Z,40.63
2023-04-17T01:29:32.285Z,43.55
2023-04-17T01:34:37.418Z,41.53
2023-04-17T01:39:42.416Z,43.88
2023-04-17T01:44:45.947Z,47.75
2023-04-17T01:49:49.277Z,43.38
2023-04-17T01:54:54.037Z,46.53
2023-04-17T01:59:57.152Z,45.38
2023-04-17T02:05:00.920Z,46.58
2023-04-17T02:10:05.678Z,47.72
2023-04-17T02:15:09.299Z,47.00
2023-04-17T02:20:13.108Z,52.40
2023-04-17T02:25:18.034Z,47.88
2023-04-17T02:30:21.249Z,46.67
2023-04-17T02:35:25.683Z,51.30
2023-04-17T02:40:30.618Z,55.05
2023-04-17T02:45:37.806Z,53.92
2023-04-17T02:50:40.916Z,59.35
2023-04-17T02:55:51.237Z,53.03
2023-04-17T03:01:01.274Z,50.08
2023-04-17T03:06:06.956Z,49.33
2023-04-17T03:11:11.717Z,46.78
2023-04-17T03:16:15.513Z,43.70
2023-04-17T03:21:21.250Z,41.67
2023-04-17T03:26:27.806Z,43.40
2023-04-17T03:31:31.569Z,41.75
2023-04-17T03:36:35.361Z,41.95
2023-04-17T03:41:41.502Z,40.90
2023-04-17T03:46:45.498Z,42.80
2023-04-17T03:51:49.161Z,37.92
2023-04-17T03:56:57.766Z,42.00
2023-04-17T04:02:01.852Z,43.03
2023-04-17T04:07:09.102Z,46.17
2023-04-17T04:12:14.436Z,46.85
2023-04-17T04:17:21.355Z,41.80
2023-04-17T04:22:25.746Z,46.17
2023-04-17T04:27:33.779Z,44.58
2023-04-17T04:38:14.169Z,47.13
2023-04-17T04:43:22.663Z,43.40
2023-04-17T04:48:30.064Z,34.07
2023-04-17T04:53:33.307Z,43.72
2023-04-17T04:58:38.630Z,52.88
2023-04-17T05:03:42.257Z,47.97
2023-04-17T05:08:47.249Z,50.10
2023-04-17T05:13:52.984Z,52.50
2023-04-17T05:19:04.086Z,53.92
2023-04-17T05:24:29.456Z,51.83
2023-04-17T05:29:34.341Z,52.88
2023-04-17T05:34:37.587Z,56.70
2023-04-17T05:39:41.424Z,53.40
2023-04-17T05:44:46.034Z,56.38
2023-04-17T05:49:51.299Z,53.15
2023-04-17T05:54:54.908Z,50.72
2023-04-17T05:59:59.621Z,59.95
2023-04-17T06:05:02.936Z,53.20
2023-04-17T06:10:06.663Z,54.20
2023-04-17T06:15:11.962Z,47.42
2023-04-17T06:20:15.444Z,55.33
2023-04-17T06:25:19.128Z,46.90
2023-04-17T06:30:23.796Z,61.53
2023-04-17T06:35:30.783Z,54.90
2023-04-17T06:40:42.181Z,50.67
2023-04-17T06:45:47.023Z,49.75
2023-04-17T06:50:50.304Z,53.28
2023-04-17T06:55:54.602Z,53.50
2023-04-17T07:00:59.230Z,50.40
2023-04-17T07:06:04.376Z,56.38
2023-04-17T07:11:07.522Z,55.88
2023-04-17T07:16:12.059Z,62.83
2023-04-17T07:21:15.515Z,50.35
2023-04-17T07:26:18.784Z,52.97
2023-04-17T07:31:23.457Z,60.92
2023-04-17T07:36:28.454Z,58.55
2023-04-17T07:41:31.619Z,64.82
2023-04-17T07:46:36.205Z,64.53
2023-04-17T07:51:41.299Z,61.70
2023-04-17T07:56:46.626Z,60.65
2023-04-17T08:01:52.554Z,65.53
2023-04-17T08:06:55.985Z,60.53
2023-04-17T08:11:59.167Z,60.10
2023-04-17T08:17:04.159Z,56.28
2023-04-17T08:22:08.140Z,59.60
2023-04-17T08:27:13.682Z,53.25
2023-04-17T08:32:18.377Z,56.72
2023-04-17T08:37:21.625Z,51.35
2023-04-17T08:42:25.981Z,48.08
2023-04-17T08:47:31.038Z,54.38
2023-04-17T08:52:34.270Z,54.65
2023-04-17T08:57:39.548Z,47.15
2023-04-17T09:02:55.068Z,53.97
2023-04-17T09:08:08.813Z,53.50
2023-04-17T09:13:14.567Z,44.25
2023-04-17T09:18:26.436Z,48.80
2023-04-17T09:23:30.144Z,41.10
2023-04-17T09:28:35.448Z,45.47
2023-04-17T09:33:56.337Z,41.83
2023-04-17T09:39:01.003Z,42.13
2023-04-17T09:44:06.505Z,43.88
2023-04-17T09:49:15.224Z,40.97
2023-04-17T09:54:20.136Z,40.88
2023-04-17T09:59:24.932Z,45.08
2023-04-17T10:04:29.861Z,38.17
2023-04-17T10:09:33.019Z,32.55
2023-04-17T10:14:37.573Z,35.65
2023-04-17T10:19:42.173Z,36.95
2023-04-17T10:24:45.387Z,34.03
2023-04-17T10:29:55.179Z,37.78
2023-04-17T10:35:00.790Z,38.30
2023-04-17T10:40:05.768Z,40.33
2023-04-17T10:45:19.455Z,32.88
2023-04-17T10:50:28.846Z,43.22
2023-04-17T10:55:32.091Z,30.30
2023-04-17T11:00:37.476Z,26.55
2023-04-17T11:05:47.279Z,29.88
2023-04-17T11:10:53.273Z,25.77
2023-04-17T11:15:56.436Z,25.63
2023-04-17T11:21:00.979Z,38.40
2023-04-17T11:26:04.291Z,30.55
2023-04-17T11:31:07.608Z,27.38
2023-04-17T11:36:12.353Z,27.30
2023-04-17T11:41:15.682Z,24.92
2023-04-17T11:46:20.068Z,25.67
2023-04-17T11:51:24.646Z,27.23
2023-04-17T11:56:29.660Z,21.98
2023-04-17T12:01:32.996Z,27.00
2023-04-17T12:06:40.551Z,24.98
2023-04-17T12:11:44.000Z,22.40
2023-04-17T12:16:50.120Z,22.52
2023-04-17T12:21:55.230Z,22.75
2023-04-17T12:26:58.813Z,22.88
2023-04-17T12:32:01.985Z,20.23
2023-04-17T12:37:06.618Z,22.15
2023-04-17T12:42:09.866Z,21.13
2023-04-17T12:47:13.064Z,20.05
2023-04-17T12:52:17.641Z,22.70
2023-04-17T12:57:20.890Z,19.25
2023-04-17T13:02:24.212Z,17.40
2023-04-17T13:07:29.927Z,24.00
2023-04-17T13:12:33.091Z,19.77
2023-04-17T13:17:37.152Z,18.23
2023-04-17T13:22:41.714Z,18.60
2023-04-17T13:27:44.922Z,16.00
2023-04-17T13:32:48.038Z,15.68
2023-04-17T13:37:52.647Z,14.52
2023-04-17T13:42:55.796Z,15.73
2023-04-17T13:48:00.404Z,20.27
2023-04-17T13:53:05.298Z,18.70
2023-04-17T13:58:08.448Z,14.30
2023-04-17T14:03:11.808Z,25.30
2023-04-17T14:08:16.499Z,17.50
2023-04-17T14:13:19.644Z,14.23
2023-04-17T14:18:24.787Z,18.67
2023-04-17T14:23:29.511Z,18.77
2023-04-17T14:28:32.583Z,18.02
2023-04-17T14:33:35.687Z,19.45
2023-04-17T14:38:40.223Z,17.00
2023-04-17T14:43:43.304Z,17.92
2023-04-17T14:53:53.934Z,15.40
2023-04-17T14:58:57.238Z,18.20
2023-04-17T15:04:00.624Z,17.27
2023-04-17T15:09:06.349Z,16.65
2023-04-17T15:14:09.590Z,17.90
2023-04-17T15:19:12.907Z,17.58
2023-04-17T15:24:17.569Z,14.38
2023-04-17T15:29:20.672Z,19.13
2023-04-17T15:34:24.599Z,18.25
2023-04-17T15:39:29.182Z,17.05
2023-04-17T15:44:33.959Z,16.40
2023-04-17T15:49:37.195Z,17.45
2023-04-17T15:54:41.892Z,18.25
2023-04-17T15:59:44.987Z,16.60
2023-04-17T16:04:48.258Z,15.65
2023-04-17T16:09:52.782Z,20.10
2023-04-17T16:14:55.941Z,16.90
2023-04-17T16:19:59.109Z,14.95
2023-04-17T16:25:03.597Z,14.30
2023-04-17T16:30:07.602Z,14.82
2023-04-17T16:35:10.917Z,16.80
2023-04-17T16:40:15.506Z,15.48
2023-04-17T16:45:18.712Z,18.15
2023-04-17T16:50:23.276Z,15.77
2023-04-17T16:55:29.701Z,15.20
2023-04-17T17:00:32.964Z,15.63
2023-04-17T17:05:36.140Z,14.98
2023-04-17T17:10:40.787Z,18.65
2023-04-17T17:15:43.954Z,24.35
2023-04-17T17:20:47.571Z,16.95
2023-04-17T17:25:52.130Z,16.42
2023-04-17T17:30:59.324Z,18.10
2023-04-17T17:36:02.890Z,16.30
2023-04-17T17:41:07.543Z,15.75
2023-04-17T17:46:10.694Z,14.15
2023-04-17T17:51:14.006Z,16.80
2023-04-17T17:56:18.830Z,15.77
2023-04-17T18:01:23.499Z,14.23
2023-04-17T18:06:27.925Z,14.23
2023-04-17T18:11:32.364Z,15.85
2023-04-17T18:16:37.172Z,13.90
2023-04-17T18:21:40.501Z,11.27
2023-04-17T18:26:45.036Z,13.65
2023-04-17T18:31:48.215Z,14.65
2023-04-17T18:36:51.477Z,16.35
2023-04-17T18:41:57.045Z,13.75
2023-04-17T18:47:00.397Z,14.18
2023-04-17T18:52:03.683Z,14.98
2023-04-17T18:57:08.235Z,12.13
2023-04-17T19:02:11.408Z,17.13
2023-04-17T19:07:14.553Z,16.65
2023-04-17T19:12:19.116Z,12.52
2023-04-17T19:17:22.377Z,12.27
2023-04-17T19:22:25.646Z,14.32
2023-04-17T19:27:30.152Z,12.25
2023-04-17T19:32:33.246Z,15.55
2023-04-17T19:37:36.388Z,15.98
2023-04-17T19:42:40.877Z,14.40
2023-04-17T19:47:44.050Z,11.40
2023-04-17T19:52:47.308Z,14.30
2023-04-17T19:57:52.293Z,14.65
2023-04-17T20:02:56.293Z,13.95
2023-04-17T20:07:59.461Z,14.05
2023-04-17T20:13:03.987Z,15.13
2023-04-17T20:18:07.920Z,16.35
2023-04-17T20:23:11.147Z,13.70
2023-04-17T20:28:15.721Z,20.90
2023-04-17T20:33:18.932Z,11.00
2023-04-17T20:38:22.102Z,13.65
2023-04-17T20:43:26.620Z,10.07
2023-04-17T20:48:29.716Z,9.90
2023-04-17T20:53:33.039Z,13.95
2023-04-17T20:58:37.891Z,11.95
2023-04-17T21:03:42.801Z,12.32
2023-04-17T21:08:45.988Z,15.60
2023-04-17T21:13:50.516Z,23.38
2023-04-17T21:18:53.628Z,12.82
2023-04-17T21:23:56.787Z,14.90
2023-04-17T21:29:01.425Z,15.88
2023-04-17T21:34:04.614Z,14.70
2023-04-17T21:39:08.369Z,16.88
2023-04-17T21:44:13.107Z,16.45
2023-04-17T21:49:16.481Z,15.40
2023-04-17T21:54:19.572Z,19.88
2023-04-17T21:59:24.402Z,15.38
2023-04-17T22:04:27.941Z,18.58
2023-04-17T22:09:31.097Z,19.80
2023-04-17T22:14:35.601Z,17.00
2023-04-17T22:19:38.753Z,19.75
2023-04-17T22:24:42.644Z,19.95
2023-04-17T22:29:47.167Z,23.05
2023-04-17T22:34:50.687Z,21.48
2023-04-17T22:40:12.547Z,21.77
2023-04-17T22:45:35.971Z,20.60
2023-04-17T22:50:39.418Z,18.60
2023-04-17T22:55:42.578Z,23.15
2023-04-17T23:00:47.289Z,18.67
2023-04-17T23:05:50.520Z,16.90
2023-04-17T23:10:57.790Z,23.50
2023-04-17T23:16:02.395Z,18.15
2023-04-17T23:21:05.800Z,18.00
2023-04-17T23:26:09.264Z,17.42
2023-04-17T23:31:14.002Z,19.55
2023-04-17T23:36:17.381Z,18.65
2023-04-17T23:41:20.516Z,18.42
2023-04-17T23:46:25.195Z,20.15
2023-04-17T23:51:28.296Z,18.73
2023-04-17T23:56:31.439Z,19.23
